createdAt,value
2018-12-02T00:00:49.108Z,8.80
2018-12-02T00:03:16.580Z,8.70
2018-12-02T00:05:44.146Z,8.70
2018-12-02T00:08:11.629Z,8.70
2018-12-02T00:10:39.232Z,8.70
2018-12-02T00:13:06.780Z,8.80
2018-12-02T00:15:36.940Z,8.70
2018-12-02T00:18:07.401Z,8.70
2018-12-02T00:20:34.854Z,8.70
2018-12-02T00:23:02.333Z,8.70
2018-12-02T00:25:29.841Z,8.80
2018-12-02T00:27:58.593Z,8.80
2018-12-02T00:30:28.196Z,8.70
2018-12-02T00:32:55.704Z,8.80
2018-12-02T00:35:23.250Z,8.70
2018-12-02T00:37:51.959Z,8.80
2018-12-02T00:40:20.336Z,8.70
2018-12-02T00:42:53.808Z,8.80
2018-12-02T00:45:22.768Z,8.80
2018-12-02T00:47:50.371Z,8.70
2018-12-02T00:50:18.704Z,8.80
2018-12-02T00:52:50.353Z,8.80
2018-12-02T00:55:23.272Z,8.80
2018-12-02T00:57:50.742Z,8.80
2018-12-02T01:00:18.458Z,8.80
2018-12-02T01:02:47.002Z,8.70
2018-12-02T01:05:15.571Z,8.80
2018-12-02T01:07:43.112Z,8.80
2018-12-02T01:10:13.671Z,8.80
2018-12-02T01:12:41.277Z,8.70
2018-12-02T01:15:10.851Z,8.70
2018-12-02T01:17:38.295Z,8.80
2018-12-02T01:20:14.571Z,8.80
2018-12-02T01:22:42.023Z,8.80
2018-12-02T01:25:12.289Z,8.80
2018-12-02T01:27:39.911Z,8.80
2018-12-02T01:30:17.029Z,8.70
2018-12-02T01:32:44.611Z,8.70
2018-12-02T01:35:12.835Z,8.70
2018-12-02T01:37:40.895Z,8.70
2018-12-02T01:40:09.889Z,8.70
2018-12-02T01:42:37.360Z,8.70
2018-12-02T01:45:09.187Z,8.80
2018-12-02T01:47:36.724Z,8.70
2018-12-02T01:50:06.644Z,8.70
2018-12-02T01:52:34.223Z,8.70
2018-12-02T01:55:01.661Z,8.70
2018-12-02T01:57:29.151Z,8.30
2018-12-02T01:59:56.612Z,8.80
2018-12-02T02:02:24.462Z,8.80
2018-12-02T02:04:51.933Z,8.60
2018-12-02T02:07:20.156Z,8.80
2018-12-02T02:09:47.586Z,8.90
2018-12-02T02:12:15.213Z,8.80
2018-12-02T02:14:42.709Z,8.80
2018-12-02T02:17:10.225Z,8.90
2018-12-02T02:19:37.776Z,8.90
2018-12-02T02:22:05.460Z,8.90
2018-12-02T02:24:33.068Z,8.80
2018-12-02T02:27:00.548Z,8.90
2018-12-02T02:29:28.119Z,8.90
2018-12-02T02:31:55.595Z,8.80
2018-12-02T02:34:23.073Z,8.80
2018-12-02T02:36:51.043Z,8.80
2018-12-02T02:39:18.490Z,8.90
2018-12-02T02:41:45.948Z,8.80
2018-12-02T02:44:13.454Z,8.90
2018-12-02T02:46:40.953Z,8.90
2018-12-02T02:49:08.411Z,8.90
2018-12-02T02:51:36.077Z,8.90
2018-12-02T02:54:03.551Z,9.20
2018-12-02T02:56:30.985Z,8.90
2018-12-02T02:58:58.476Z,8.90
2018-12-02T03:01:26.517Z,8.70
2018-12-02T03:03:53.985Z,8.90
2018-12-02T03:06:21.522Z,8.90
2018-12-02T03:08:48.972Z,8.90
2018-12-02T03:11:21.250Z,8.90
2018-12-02T03:13:48.728Z,8.90
2018-12-02T03:16:16.217Z,8.90
2018-12-02T03:18:43.754Z,8.90
2018-12-02T03:21:11.223Z,8.90
2018-12-02T03:23:38.682Z,8.90
2018-12-02T03:26:06.241Z,8.90
2018-12-02T03:28:33.696Z,8.90
2018-12-02T03:31:01.144Z,8.90
2018-12-02T03:33:28.583Z,8.90
2018-12-02T03:35:56.033Z,8.90
2018-12-02T03:38:23.572Z,8.90
2018-12-02T03:40:51.062Z,8.90
2018-12-02T03:43:18.635Z,8.80
2018-12-02T03:45:46.097Z,8.80
2018-12-02T03:48:13.629Z,8.90
2018-12-02T03:50:41.218Z,8.90
2018-12-02T03:53:08.816Z,8.90
2018-12-02T03:55:36.610Z,8.80
2018-12-02T03:58:04.774Z,8.80
2018-12-02T04:00:32.312Z,8.80
2018-12-02T04:02:59.832Z,8.80
2018-12-02T04:05:27.265Z,8.30
2018-12-02T04:07:54.767Z,8.80
2018-12-02T04:10:22.298Z,8.80
2018-12-02T04:12:51.945Z,8.70
2018-12-02T04:15:21.181Z,8.70
2018-12-02T04:17:48.718Z,8.70
2018-12-02T04:20:17.041Z,8.70
2018-12-02T04:22:45.375Z,8.70
2018-12-02T04:25:19.461Z,8.70
2018-12-02T04:27:47.022Z,8.70
2018-12-02T04:30:15.297Z,8.50
2018-12-02T04:32:42.859Z,8.70
2018-12-02T04:35:16.236Z,8.70
2018-12-02T04:37:43.850Z,8.70
2018-12-02T04:40:12.324Z,8.70
2018-12-02T04:42:39.852Z,8.70
2018-12-02T04:45:22.069Z,8.70
2018-12-02T04:47:49.524Z,8.70
2018-12-02T04:50:17.936Z,8.60
2018-12-02T04:52:45.495Z,8.60
2018-12-02T04:55:13.045Z,8.60
2018-12-02T04:57:40.482Z,8.60
2018-12-02T05:00:22.596Z,8.60
2018-12-02T05:02:50.869Z,8.60
2018-12-02T05:05:19.997Z,8.70
2018-12-02T05:07:47.574Z,8.60
2018-12-02T05:10:16.474Z,8.60
2018-12-02T05:12:44.422Z,8.60
2018-12-02T05:15:13.185Z,8.60
2018-12-02T05:17:41.019Z,8.60
2018-12-02T05:20:13.280Z,8.70
2018-12-02T05:22:41.085Z,8.60
2018-12-02T05:25:09.479Z,8.60
2018-12-02T05:27:37.019Z,8.60
2018-12-02T05:30:08.237Z,8.60
2018-12-02T05:32:35.738Z,8.60
2018-12-02T05:35:03.278Z,8.70
2018-12-02T05:37:30.744Z,8.60
2018-12-02T05:39:58.243Z,8.60
2018-12-02T05:42:32.479Z,8.60
2018-12-02T05:45:00.490Z,8.70
2018-12-02T05:47:27.948Z,8.60
2018-12-02T05:49:55.403Z,8.60
2018-12-02T05:52:22.840Z,8.60
2018-12-02T05:54:50.410Z,8.60
2018-12-02T05:57:17.904Z,8.60
2018-12-02T05:59:45.521Z,8.60
2018-12-02T06:02:13.044Z,8.60
2018-12-02T06:04:40.500Z,8.60
2018-12-02T06:07:08.016Z,8.60
2018-12-02T06:09:35.504Z,8.60
2018-12-02T06:12:02.962Z,8.60
2018-12-02T06:14:30.465Z,8.60
2018-12-02T06:16:57.928Z,8.60
2018-12-02T06:19:25.620Z,8.60
2018-12-02T06:21:53.089Z,8.60
2018-12-02T06:24:20.526Z,8.60
2018-12-02T06:26:47.994Z,8.50
2018-12-02T06:29:15.440Z,8.50
2018-12-02T06:31:42.852Z,8.60
2018-12-02T06:34:10.254Z,8.60
2018-12-02T06:36:37.756Z,8.60
2018-12-02T06:39:08.514Z,8.60
2018-12-02T06:41:36.432Z,8.60
2018-12-02T06:44:04.096Z,8.50
2018-12-02T06:46:31.551Z,8.80
2018-12-02T06:48:59.072Z,8.60
2018-12-02T06:51:26.595Z,8.70
2018-12-02T06:53:54.102Z,8.60
2018-12-02T06:56:29.009Z,8.60
2018-12-02T06:59:19.185Z,8.60
2018-12-02T07:01:55.349Z,8.60
2018-12-02T07:04:27.607Z,8.60
2018-12-02T07:06:55.224Z,8.60
2018-12-02T07:09:22.733Z,8.70
2018-12-02T07:11:50.441Z,8.60
2018-12-02T07:14:17.959Z,8.70
2018-12-02T07:16:45.458Z,8.70
2018-12-02T07:19:18.425Z,8.70
2018-12-02T07:21:47.838Z,8.70
2018-12-02T07:24:16.716Z,8.70
2018-12-02T07:26:46.653Z,8.70
2018-12-02T07:29:15.458Z,8.70
2018-12-02T07:31:43.147Z,8.60
2018-12-02T07:34:10.700Z,8.70
2018-12-02T07:36:38.235Z,8.70
2018-12-02T07:39:15.842Z,8.70
2018-12-02T07:41:43.305Z,8.70
2018-12-02T07:44:11.460Z,8.70
2018-12-02T07:46:39.105Z,8.60
2018-12-02T07:49:06.778Z,8.70
2018-12-02T07:51:34.257Z,8.60
2018-12-02T07:54:01.769Z,8.70
2018-12-02T07:56:29.305Z,8.70
2018-12-02T07:58:56.819Z,8.70
2018-12-02T08:01:24.658Z,8.70
2018-12-02T08:03:52.192Z,8.70
2018-12-02T08:06:19.724Z,8.70
2018-12-02T08:08:56.132Z,8.70
2018-12-02T08:11:23.657Z,8.70
2018-12-02T08:13:51.273Z,8.70
2018-12-02T08:16:19.924Z,8.70
2018-12-02T08:18:48.188Z,8.70
2018-12-02T08:21:15.708Z,8.70
2018-12-02T08:23:43.216Z,8.70
2018-12-02T08:26:16.275Z,8.70
2018-12-02T08:28:44.668Z,8.70
2018-12-02T08:31:12.325Z,8.70
2018-12-02T08:33:40.722Z,8.70
2018-12-02T08:36:08.949Z,8.80
2018-12-02T08:38:37.320Z,8.80
2018-12-02T08:41:05.688Z,8.80
2018-12-02T08:43:34.410Z,8.80
2018-12-02T08:46:01.940Z,8.80
2018-12-02T08:48:29.770Z,8.80
2018-12-02T08:50:58.887Z,8.80
2018-12-02T08:53:29.751Z,8.90
2018-12-02T08:55:57.347Z,8.90
2018-12-02T08:58:25.474Z,8.90
2018-12-02T09:00:53.158Z,8.90
2018-12-02T09:03:21.749Z,8.90
2018-12-02T09:05:50.264Z,8.90
2018-12-02T09:08:18.961Z,8.90
2018-12-02T09:10:48.375Z,9.00
2018-12-02T09:13:17.642Z,9.00
2018-12-02T09:15:45.690Z,9.00
2018-12-02T09:18:14.270Z,9.00
2018-12-02T09:20:43.122Z,9.00
2018-12-02T09:23:11.655Z,9.00
2018-12-02T09:25:39.747Z,9.40
2018-12-02T09:28:08.649Z,9.10
2018-12-02T09:30:37.493Z,9.10
2018-12-02T09:33:06.025Z,9.00
2018-12-02T09:35:34.230Z,10.10
2018-12-02T09:38:03.733Z,9.10
2018-12-02T09:40:31.614Z,9.10
2018-12-02T09:42:59.816Z,9.00
2018-12-02T09:45:30.102Z,9.10
2018-12-02T09:47:59.838Z,9.10
2018-12-02T09:50:28.396Z,9.10
2018-12-02T09:52:56.389Z,9.20
2018-12-02T09:55:31.441Z,9.10
2018-12-02T09:58:02.854Z,9.20
2018-12-02T10:00:34.119Z,9.20
2018-12-02T10:02:58.524Z,9.20
2018-12-02T10:05:27.094Z,9.20
2018-12-02T10:07:57.179Z,9.20
2018-12-02T10:10:40.511Z,9.30
2018-12-02T10:13:11.552Z,9.20
2018-12-02T10:15:42.562Z,9.30
2018-12-02T10:18:12.757Z,9.20
2018-12-02T10:20:40.581Z,9.30
2018-12-02T10:23:11.424Z,9.20
2018-12-02T10:25:39.674Z,9.20
2018-12-02T10:28:08.432Z,9.30
2018-12-02T10:30:41.499Z,9.30
2018-12-02T10:33:11.365Z,9.30
2018-12-02T10:35:51.500Z,9.30
2018-12-02T10:38:30.571Z,9.40
2018-12-02T10:40:58.774Z,9.30
2018-12-02T10:43:28.213Z,9.40
2018-12-02T10:46:00.869Z,9.40
2018-12-02T10:48:29.524Z,9.40
2018-12-02T10:50:57.654Z,9.40
2018-12-02T10:53:28.082Z,9.50
2018-12-02T10:55:58.436Z,9.50
2018-12-02T10:58:35.576Z,9.50
2018-12-02T11:01:10.055Z,9.50
2018-12-02T11:03:39.764Z,9.40
2018-12-02T11:06:08.305Z,9.60
2018-12-02T11:08:35.950Z,9.60
2018-12-02T11:11:05.051Z,9.60
2018-12-02T11:13:32.716Z,9.60
2018-12-02T11:16:03.422Z,9.70
2018-12-02T11:18:33.525Z,9.20
2018-12-02T11:21:01.638Z,9.70
2018-12-02T11:23:29.924Z,9.70
2018-12-02T11:25:59.172Z,9.60
2018-12-02T11:28:27.335Z,9.70
2018-12-02T11:31:04.655Z,9.80
2018-12-02T11:33:34.953Z,9.90
2018-12-02T11:36:03.809Z,9.80
2018-12-02T11:38:32.777Z,9.80
2018-12-02T11:41:01.590Z,9.80
2018-12-02T11:43:32.648Z,9.90
2018-12-02T11:59:15.411Z,10.00
2018-12-02T12:01:45.333Z,10.10
2018-12-02T12:07:34.727Z,10.30
2018-12-02T12:10:03.422Z,10.20
2018-12-02T12:12:31.231Z,10.20
2018-12-02T12:15:09.986Z,10.30
2018-12-02T12:17:42.285Z,10.40
2018-12-02T12:20:12.707Z,10.40
2018-12-02T12:22:40.430Z,10.30
2018-12-02T12:25:08.764Z,10.40
2018-12-02T12:27:36.766Z,10.50
2018-12-02T12:30:12.756Z,10.50
2018-12-02T12:32:41.307Z,10.60
2018-12-02T12:35:10.564Z,10.70
2018-12-02T12:37:39.744Z,10.70
2018-12-02T12:43:26.982Z,10.70
2018-12-02T12:49:17.923Z,11.00
2018-12-02T12:51:54.218Z,10.90
2018-12-02T12:54:35.987Z,11.10
2018-12-02T12:57:04.077Z,11.00
2018-12-02T12:59:33.021Z,10.60
2018-12-02T13:02:19.962Z,11.20
2018-12-02T13:04:48.431Z,11.30
2018-12-02T13:07:20.818Z,11.60
2018-12-02T13:09:48.885Z,11.70
2018-12-02T13:12:22.201Z,11.60
2018-12-02T13:14:51.176Z,11.70
2018-12-02T13:17:19.749Z,11.70
2018-12-02T13:19:47.489Z,11.80
2018-12-02T13:22:15.915Z,11.90
2018-12-02T13:24:43.591Z,12.00
2018-12-02T13:27:11.647Z,12.00
2018-12-02T13:29:39.264Z,12.00
2018-12-02T13:32:06.813Z,12.00
2018-12-02T13:34:36.547Z,12.10
2018-12-02T13:37:04.654Z,11.60
2018-12-02T13:39:32.289Z,12.20
2018-12-02T13:42:00.504Z,12.20
2018-12-02T13:44:33.570Z,12.10
2018-12-02T13:47:01.205Z,12.10
2018-12-02T13:49:28.959Z,12.20
2018-12-02T13:51:56.793Z,12.10
2018-12-02T13:54:35.175Z,12.20
2018-12-02T13:57:03.070Z,12.30
2018-12-02T13:59:31.746Z,12.30
2018-12-02T14:02:02.205Z,12.30
2018-12-02T14:04:30.697Z,12.30
2018-12-02T14:06:59.669Z,12.30
2018-12-02T14:09:30.626Z,12.70
2018-12-02T14:12:03.858Z,12.50
2018-12-02T14:14:45.902Z,12.60
2018-12-02T14:17:18.792Z,12.50
2018-12-02T14:19:48.411Z,12.40
2018-12-02T14:22:17.464Z,12.40
2018-12-02T14:24:46.833Z,12.30
2018-12-02T14:27:14.777Z,12.40
2018-12-02T14:29:55.333Z,12.30
2018-12-02T14:32:29.117Z,12.50
2018-12-02T14:34:57.491Z,12.50
2018-12-02T14:37:25.167Z,12.40
2018-12-02T14:39:53.276Z,12.50
2018-12-02T14:42:23.312Z,12.50
2018-12-02T14:44:54.850Z,12.40
2018-12-02T14:47:22.925Z,12.30
2018-12-02T14:49:51.570Z,12.30
2018-12-02T14:52:25.117Z,12.20
2018-12-02T14:54:53.442Z,12.20
2018-12-02T14:57:21.036Z,12.10
2018-12-02T14:59:49.126Z,12.10
2018-12-02T15:02:17.198Z,12.10
2018-12-02T15:04:54.178Z,12.30
2018-12-02T15:07:22.219Z,12.10
2018-12-02T15:09:50.701Z,12.10
2018-12-02T15:12:18.695Z,12.10
2018-12-02T15:14:46.940Z,12.20
2018-12-02T15:17:18.693Z,12.00
2018-12-02T15:19:46.246Z,12.00
2018-12-02T15:22:14.525Z,12.00
2018-12-02T15:24:42.555Z,12.00
2018-12-02T15:27:10.169Z,12.00
2018-12-02T15:29:39.542Z,11.90
2018-12-02T15:32:07.213Z,11.80
2018-12-02T15:34:41.944Z,11.80
2018-12-02T15:37:12.879Z,11.80
2018-12-02T15:39:42.473Z,11.80
2018-12-02T15:42:10.453Z,12.00
2018-12-02T15:44:38.717Z,11.70
2018-12-02T15:47:07.566Z,11.70
2018-12-02T15:49:37.504Z,11.70
2018-12-02T15:52:05.821Z,11.80
2018-12-02T15:54:33.464Z,11.80
2018-12-02T15:57:02.165Z,11.80
2018-12-02T15:59:29.837Z,11.70
2018-12-02T16:01:57.911Z,11.70
2018-12-02T16:04:27.738Z,11.70
2018-12-02T16:06:56.029Z,11.70
2018-12-02T16:09:23.862Z,11.70
2018-12-02T16:11:52.638Z,11.60
2018-12-02T16:14:20.830Z,11.70
2018-12-02T16:16:49.607Z,11.60
2018-12-02T16:19:18.026Z,11.70
2018-12-02T16:21:46.793Z,11.60
2018-12-02T16:24:15.435Z,10.90
2018-12-02T16:26:43.130Z,11.50
2018-12-02T16:29:11.140Z,11.50
2018-12-02T16:31:40.676Z,11.50
2018-12-02T16:34:09.117Z,11.50
2018-12-02T16:36:39.372Z,11.40
2018-12-02T16:39:12.436Z,11.50
2018-12-02T16:41:55.438Z,11.40
2018-12-02T16:44:29.839Z,11.50
2018-12-02T17:02:14.496Z,11.60
2018-12-02T17:04:42.153Z,11.60
2018-12-02T17:07:11.909Z,11.60
2018-12-02T17:09:41.129Z,11.60
2018-12-02T17:12:10.318Z,11.60
2018-12-02T17:14:39.926Z,11.80
2018-12-02T17:17:11.568Z,11.60
2018-12-02T17:19:39.301Z,11.60
2018-12-02T17:22:07.602Z,11.60
2018-12-02T17:24:35.265Z,11.50
2018-12-02T17:27:04.193Z,11.50
2018-12-02T17:29:31.951Z,11.50
2018-12-02T17:32:03.247Z,11.50
2018-12-02T17:34:33.936Z,11.50
2018-12-02T17:37:07.381Z,11.50
2018-12-02T17:39:43.145Z,11.50
2018-12-02T17:42:12.264Z,11.50
2018-12-02T17:44:41.023Z,11.50
2018-12-02T17:47:08.712Z,11.50
2018-12-02T17:49:38.951Z,11.50
2018-12-02T17:52:08.180Z,11.30
2018-12-02T17:54:36.067Z,11.50
2018-12-02T17:57:05.295Z,11.60
2018-12-02T17:59:39.109Z,11.60
2018-12-02T18:02:09.882Z,11.50
2018-12-02T18:04:38.048Z,11.60
2018-12-02T18:09:52.071Z,11.60
2018-12-02T18:12:24.230Z,11.60
2018-12-02T18:14:52.565Z,11.70
2018-12-02T18:17:20.263Z,11.60
2018-12-02T18:19:49.540Z,11.60
2018-12-02T18:22:17.132Z,11.60
2018-12-02T18:24:45.204Z,11.60
2018-12-02T18:27:13.881Z,11.50
2018-12-02T18:29:42.054Z,11.50
2018-12-02T18:32:10.364Z,11.60
2018-12-02T18:34:40.792Z,11.60
2018-12-02T18:37:10.358Z,11.50
2018-12-02T18:39:38.745Z,11.50
2018-12-02T18:42:09.209Z,11.60
2018-12-02T18:44:37.807Z,11.50
2018-12-02T18:47:06.435Z,11.50
2018-12-02T18:49:34.319Z,11.60
2018-12-02T18:52:03.301Z,11.60
2018-12-02T18:54:35.819Z,11.70
2018-12-02T18:57:04.431Z,11.70
2018-12-02T18:59:32.312Z,11.50
2018-12-02T19:02:06.256Z,11.70
2018-12-02T19:04:34.705Z,11.70
2018-12-02T19:07:02.441Z,11.70
2018-12-02T19:09:30.113Z,11.80
2018-12-02T19:11:58.204Z,11.80
2018-12-02T19:14:25.907Z,11.80
2018-12-02T19:16:57.364Z,11.80
2018-12-02T19:19:25.425Z,11.80
2018-12-02T19:21:54.538Z,11.80
2018-12-02T19:27:03.694Z,11.70
2018-12-02T19:29:31.414Z,11.80
2018-12-02T19:31:59.401Z,11.80
2018-12-02T19:34:29.439Z,11.80
2018-12-02T19:37:01.400Z,11.80
2018-12-02T19:39:30.809Z,11.80
2018-12-02T19:41:58.606Z,11.80
2018-12-02T19:44:26.224Z,11.80
2018-12-02T19:46:55.380Z,11.80
2018-12-02T19:49:23.531Z,11.90
2018-12-02T19:51:51.720Z,11.80
2018-12-02T19:54:19.273Z,11.80
2018-12-02T19:56:46.934Z,11.80
2018-12-02T19:59:14.968Z,11.80
2018-12-02T20:01:43.007Z,11.80
2018-12-02T20:04:10.666Z,11.80
2018-12-02T20:06:38.836Z,11.80
2018-12-02T20:09:09.524Z,11.80
2018-12-02T20:11:37.865Z,11.80
2018-12-02T20:14:06.275Z,11.70
2018-12-02T20:16:34.243Z,11.80
2018-12-02T20:19:06.375Z,11.70
2018-12-02T20:21:34.013Z,11.70
2018-12-02T20:24:09.270Z,11.70
2018-12-02T20:26:41.401Z,11.80
2018-12-02T20:29:09.770Z,11.80
2018-12-02T20:31:39.471Z,11.70
2018-12-02T20:34:11.040Z,11.70
2018-12-02T20:36:38.951Z,11.80
2018-12-02T20:39:10.225Z,11.70
2018-12-02T20:41:39.869Z,11.70
2018-12-02T20:44:08.105Z,11.70
2018-12-02T20:46:35.765Z,11.70
2018-12-02T20:49:03.453Z,11.70
2018-12-02T20:51:31.171Z,11.70
2018-12-02T20:54:00.687Z,11.70
2018-12-02T20:56:28.202Z,11.70
2018-12-02T20:58:55.757Z,11.70
2018-12-02T21:01:23.513Z,11.70
2018-12-02T21:03:50.954Z,11.70
2018-12-02T21:06:19.706Z,11.70
2018-12-02T21:08:47.489Z,11.70
2018-12-02T21:11:15.028Z,11.70
2018-12-02T21:13:42.626Z,11.70
2018-12-02T21:16:10.201Z,11.80
2018-12-02T21:18:37.852Z,11.80
2018-12-02T21:21:05.609Z,11.80
2018-12-02T21:23:33.273Z,11.80
2018-12-02T21:26:00.932Z,11.80
2018-12-02T21:28:28.424Z,11.80
2018-12-02T21:30:56.011Z,11.80
2018-12-02T21:33:23.617Z,11.80
2018-12-02T21:35:51.626Z,11.80
2018-12-02T21:38:19.157Z,11.80
2018-12-02T21:40:50.867Z,11.80
2018-12-02T21:43:18.433Z,11.80
2018-12-02T21:45:45.966Z,11.80
2018-12-02T21:48:16.037Z,11.80
2018-12-02T21:50:45.310Z,11.80
2018-12-02T21:53:13.352Z,11.80
2018-12-02T21:55:40.909Z,11.80
2018-12-02T21:58:08.624Z,11.80
2018-12-02T22:00:41.637Z,11.70
2018-12-02T22:03:09.175Z,11.80
2018-12-02T22:05:36.730Z,11.80
2018-12-02T22:08:04.877Z,11.80
2018-12-02T22:10:32.527Z,11.70
2018-12-02T22:12:59.983Z,11.80
2018-12-02T22:15:27.582Z,11.80
2018-12-02T22:17:55.229Z,11.80
2018-12-02T22:20:22.807Z,11.80
2018-12-02T22:22:50.475Z,11.80
2018-12-02T22:25:21.967Z,11.80
2018-12-02T22:27:50.469Z,11.80
2018-12-02T22:30:19.052Z,11.80
2018-12-02T22:32:46.712Z,11.80
2018-12-02T22:35:14.887Z,11.80
2018-12-02T22:37:43.015Z,11.80
2018-12-02T22:40:11.797Z,11.80
2018-12-02T22:42:39.240Z,11.80
2018-12-02T22:45:10.028Z,11.80
2018-12-02T22:47:37.555Z,11.80
2018-12-02T22:50:12.425Z,11.80
2018-12-02T22:52:39.977Z,11.80
2018-12-02T22:55:08.688Z,11.80
2018-12-02T22:57:36.680Z,11.80
2018-12-02T23:00:17.112Z,11.80
2018-12-02T23:02:51.693Z,11.80
2018-12-02T23:05:19.188Z,11.80
2018-12-02T23:07:46.713Z,11.80
2018-12-02T23:10:14.203Z,11.80
2018-12-02T23:12:41.699Z,11.80
2018-12-02T23:15:09.330Z,11.80
2018-12-02T23:17:36.800Z,11.80
2018-12-02T23:20:06.745Z,11.80
2018-12-02T23:22:34.282Z,11.90
2018-12-02T23:25:01.888Z,11.90
2018-12-02T23:27:29.390Z,11.90
2018-12-02T23:29:56.965Z,11.90
2018-12-02T23:32:24.488Z,12.00
2018-12-02T23:34:52.008Z,12.00
2018-12-02T23:37:20.671Z,12.00
2018-12-02T23:39:47.143Z,12.00
2018-12-02T23:42:14.884Z,12.00
2018-12-02T23:44:42.418Z,11.90
2018-12-02T23:47:09.952Z,11.90
2018-12-02T23:49:37.454Z,11.60
2018-12-02T23:52:05.047Z,11.90
2018-12-02T23:54:32.668Z,12.00
2018-12-02T23:57:00.764Z,12.00
2018-12-02T23:59:28.316Z,11.90
